sensor_id;sensor_type;location;lat;lon;timestamp;P1;durP1;ratioP1;P2;durP2;ratioP2
25349;SDS011;13302;48.796;11.978;2023-05-10T00:01:58;3.20;;;3.10;;
25349;SDS011;13302;48.796;11.978;2023-05-10T00:04:45;3.67;;;3.47;;
25349;SDS011;13302;48.796;11.978;2023-05-10T00:07:32;3.37;;;3.03;;
25349;SDS011;13302;48.796;11.978;2023-05-10T00:10:19;3.20;;;3.00;;
25349;SDS011;13302;48.796;11.978;2023-05-10T00:13:06;3.30;;;3.10;;
25349;SDS011;13302;48.796;11.978;2023-05-10T00:15:53;3.20;;;3.00;;
25349;SDS011;13302;48.796;11.978;2023-05-10T00:18:40;3.97;;;3.60;;
25349;SDS011;13302;48.796;11.978;2023-05-10T00:21:27;3.43;;;3.17;;
25349;SDS011;13302;48.796;11.978;2023-05-10T00:24:15;3.00;;;2.80;;
25349;SDS011;13302;48.796;11.978;2023-05-10T00:27:02;3.17;;;2.87;;
25349;SDS011;13302;48.796;11.978;2023-05-10T00:29:50;3.00;;;2.90;;
25349;SDS011;13302;48.796;11.978;2023-05-10T00:32:37;3.20;;;3.00;;
25349;SDS011;13302;48.796;11.978;2023-05-10T00:35:24;3.60;;;3.40;;
25349;SDS011;13302;48.796;11.978;2023-05-10T00:38:12;3.20;;;2.90;;
25349;SDS011;13302;48.796;11.978;2023-05-10T00:41:00;3.40;;;3.20;;
25349;SDS011;13302;48.796;11.978;2023-05-10T00:43:50;3.73;;;3.50;;
25349;SDS011;13302;48.796;11.978;2023-05-10T00:46:37;3.70;;;3.50;;
25349;SDS011;13302;48.796;11.978;2023-05-10T00:49:24;3.77;;;3.47;;
25349;SDS011;13302;48.796;11.978;2023-05-10T00:52:11;3.97;;;3.67;;
25349;SDS011;13302;48.796;11.978;2023-05-10T00:54:59;3.37;;;3.13;;
25349;SDS011;13302;48.796;11.978;2023-05-10T00:57:47;3.67;;;3.40;;
25349;SDS011;13302;48.796;11.978;2023-05-10T01:00:34;3.90;;;3.03;;
25349;SDS011;13302;48.796;11.978;2023-05-10T01:03:24;4.53;;;4.10;;
25349;SDS011;13302;48.796;11.978;2023-05-10T01:06:12;3.90;;;3.60;;
25349;SDS011;13302;48.796;11.978;2023-05-10T01:08:59;4.10;;;3.80;;
25349;SDS011;13302;48.796;11.978;2023-05-10T01:11:46;4.23;;;3.60;;
25349;SDS011;13302;48.796;11.978;2023-05-10T01:14:35;4.87;;;3.73;;
25349;SDS011;13302;48.796;11.978;2023-05-10T01:17:23;3.80;;;3.60;;
25349;SDS011;13302;48.796;11.978;2023-05-10T01:20:11;5.17;;;3.70;;
25349;SDS011;13302;48.796;11.978;2023-05-10T01:26:21;3.60;;;3.30;;
25349;SDS011;13302;48.796;11.978;2023-05-10T01:35:55;4.50;;;4.10;;
25349;SDS011;13302;48.796;11.978;2023-05-10T01:38:47;4.90;;;4.60;;
25349;SDS011;13302;48.796;11.978;2023-05-10T01:41:51;4.07;;;3.77;;
25349;SDS011;13302;48.796;11.978;2023-05-10T01:44:49;3.90;;;3.70;;
25349;SDS011;13302;48.796;11.978;2023-05-10T01:47:46;4.00;;;3.77;;
25349;SDS011;13302;48.796;11.978;2023-05-10T01:50:39;4.33;;;3.93;;
25349;SDS011;13302;48.796;11.978;2023-05-10T01:53:30;3.40;;;3.20;;
25349;SDS011;13302;48.796;11.978;2023-05-10T01:56:20;3.80;;;3.60;;
25349;SDS011;13302;48.796;11.978;2023-05-10T01:59:15;3.20;;;3.00;;
25349;SDS011;13302;48.796;11.978;2023-05-10T02:02:04;3.20;;;3.00;;
25349;SDS011;13302;48.796;11.978;2023-05-10T02:04:53;3.27;;;2.97;;
25349;SDS011;13302;48.796;11.978;2023-05-10T02:07:42;3.00;;;2.90;;
25349;SDS011;13302;48.796;11.978;2023-05-10T02:10:31;3.00;;;2.80;;
25349;SDS011;13302;48.796;11.978;2023-05-10T02:13:20;3.40;;;3.27;;
25349;SDS011;13302;48.796;11.978;2023-05-10T02:16:10;4.37;;;3.97;;
25349;SDS011;13302;48.796;11.978;2023-05-10T02:18:58;3.93;;;3.73;;
25349;SDS011;13302;48.796;11.978;2023-05-10T02:21:48;3.80;;;3.50;;
25349;SDS011;13302;48.796;11.978;2023-05-10T02:24:37;3.53;;;3.33;;
25349;SDS011;13302;48.796;11.978;2023-05-10T02:27:27;3.93;;;3.73;;
25349;SDS011;13302;48.796;11.978;2023-05-10T02:30:14;3.60;;;3.30;;
25349;SDS011;13302;48.796;11.978;2023-05-10T02:33:03;3.20;;;3.00;;
25349;SDS011;13302;48.796;11.978;2023-05-10T02:35:52;3.20;;;3.00;;
25349;SDS011;13302;48.796;11.978;2023-05-10T02:38:40;3.60;;;3.40;;
25349;SDS011;13302;48.796;11.978;2023-05-10T02:41:27;3.60;;;3.40;;
25349;SDS011;13302;48.796;11.978;2023-05-10T02:44:18;3.30;;;2.90;;
25349;SDS011;13302;48.796;11.978;2023-05-10T02:47:06;2.60;;;2.50;;
25349;SDS011;13302;48.796;11.978;2023-05-10T02:49:53;2.57;;;2.43;;
25349;SDS011;13302;48.796;11.978;2023-05-10T02:52:49;2.73;;;2.63;;
25349;SDS011;13302;48.796;11.978;2023-05-10T02:55:39;2.50;;;2.37;;
25349;SDS011;13302;48.796;11.978;2023-05-10T02:58:28;2.17;;;2.07;;
25349;SDS011;13302;48.796;11.978;2023-05-10T03:01:15;2.40;;;2.30;;
25349;SDS011;13302;48.796;11.978;2023-05-10T03:04:03;2.07;;;1.97;;
25349;SDS011;13302;48.796;11.978;2023-05-10T03:06:51;2.00;;;1.90;;
25349;SDS011;13302;48.796;11.978;2023-05-10T03:09:38;2.10;;;2.10;;
25349;SDS011;13302;48.796;11.978;2023-05-10T03:15:51;2.00;;;2.00;;
25349;SDS011;13302;48.796;11.978;2023-05-10T03:19:02;1.70;;;1.70;;
25349;SDS011;13302;48.796;11.978;2023-05-10T03:22:04;1.40;;;1.40;;
25349;SDS011;13302;48.796;11.978;2023-05-10T03:24:58;1.37;;;1.37;;
25349;SDS011;13302;48.796;11.978;2023-05-10T03:27:53;1.40;;;1.40;;
25349;SDS011;13302;48.796;11.978;2023-05-10T03:30:42;1.23;;;1.20;;
25349;SDS011;13302;48.796;11.978;2023-05-10T03:33:31;1.73;;;1.47;;
25349;SDS011;13302;48.796;11.978;2023-05-10T03:36:19;1.33;;;1.33;;
25349;SDS011;13302;48.796;11.978;2023-05-10T03:39:06;1.23;;;1.23;;
25349;SDS011;13302;48.796;11.978;2023-05-10T03:41:53;1.30;;;1.30;;
25349;SDS011;13302;48.796;11.978;2023-05-10T03:44:40;1.17;;;1.17;;
25349;SDS011;13302;48.796;11.978;2023-05-10T03:47:28;1.40;;;1.30;;
25349;SDS011;13302;48.796;11.978;2023-05-10T03:50:17;1.70;;;1.30;;
25349;SDS011;13302;48.796;11.978;2023-05-10T03:53:05;1.20;;;1.20;;
25349;SDS011;13302;48.796;11.978;2023-05-10T03:55:52;1.37;;;1.30;;
25349;SDS011;13302;48.796;11.978;2023-05-10T03:58:39;1.10;;;1.10;;
25349;SDS011;13302;48.796;11.978;2023-05-10T04:01:26;1.13;;;1.13;;
25349;SDS011;13302;48.796;11.978;2023-05-10T04:04:13;1.00;;;1.00;;
25349;SDS011;13302;48.796;11.978;2023-05-10T04:07:00;1.13;;;1.13;;
25349;SDS011;13302;48.796;11.978;2023-05-10T04:09:48;1.20;;;1.10;;
25349;SDS011;13302;48.796;11.978;2023-05-10T04:12:35;1.33;;;1.30;;
25349;SDS011;13302;48.796;11.978;2023-05-10T04:15:22;1.07;;;1.07;;
25349;SDS011;13302;48.796;11.978;2023-05-10T04:18:09;1.03;;;1.03;;
25349;SDS011;13302;48.796;11.978;2023-05-10T04:20:56;0.90;;;0.90;;
25349;SDS011;13302;48.796;11.978;2023-05-10T04:23:44;1.37;;;1.10;;
25349;SDS011;13302;48.796;11.978;2023-05-10T04:26:31;1.10;;;1.10;;
25349;SDS011;13302;48.796;11.978;2023-05-10T04:29:18;1.10;;;1.10;;
25349;SDS011;13302;48.796;11.978;2023-05-10T04:32:05;1.60;;;1.00;;
25349;SDS011;13302;48.796;11.978;2023-05-10T04:34:52;0.90;;;0.90;;
25349;SDS011;13302;48.796;11.978;2023-05-10T04:37:39;0.77;;;0.77;;
25349;SDS011;13302;48.796;11.978;2023-05-10T04:40:26;0.90;;;0.90;;
25349;SDS011;13302;48.796;11.978;2023-05-10T04:43:13;0.87;;;0.60;;
25349;SDS011;13302;48.796;11.978;2023-05-10T04:46:00;0.60;;;0.50;;
25349;SDS011;13302;48.796;11.978;2023-05-10T04:48:47;0.50;;;0.50;;
25349;SDS011;13302;48.796;11.978;2023-05-10T04:51:34;0.70;;;0.70;;
25349;SDS011;13302;48.796;11.978;2023-05-10T04:54:21;0.70;;;0.70;;
25349;SDS011;13302;48.796;11.978;2023-05-10T04:57:08;0.80;;;0.80;;
25349;SDS011;13302;48.796;11.978;2023-05-10T04:59:55;0.80;;;0.80;;
25349;SDS011;13302;48.796;11.978;2023-05-10T05:02:43;0.80;;;0.80;;
25349;SDS011;13302;48.796;11.978;2023-05-10T05:05:32;0.70;;;0.70;;
25349;SDS011;13302;48.796;11.978;2023-05-10T05:08:19;0.87;;;0.87;;
25349;SDS011;13302;48.796;11.978;2023-05-10T05:11:06;0.80;;;0.80;;
25349;SDS011;13302;48.796;11.978;2023-05-10T05:13:53;0.80;;;0.80;;
25349;SDS011;13302;48.796;11.978;2023-05-10T05:16:40;0.70;;;0.70;;
25349;SDS011;13302;48.796;11.978;2023-05-10T05:19:27;0.60;;;0.60;;
25349;SDS011;13302;48.796;11.978;2023-05-10T05:22:14;1.60;;;0.73;;
25349;SDS011;13302;48.796;11.978;2023-05-10T05:25:02;0.60;;;0.60;;
25349;SDS011;13302;48.796;11.978;2023-05-10T05:27:50;0.70;;;0.70;;
25349;SDS011;13302;48.796;11.978;2023-05-10T05:30:37;0.70;;;0.70;;
25349;SDS011;13302;48.796;11.978;2023-05-10T05:33:24;0.57;;;0.57;;
25349;SDS011;13302;48.796;11.978;2023-05-10T05:36:11;0.70;;;0.70;;
25349;SDS011;13302;48.796;11.978;2023-05-10T05:38:58;0.60;;;0.60;;
25349;SDS011;13302;48.796;11.978;2023-05-10T05:41:45;0.87;;;0.70;;
25349;SDS011;13302;48.796;11.978;2023-05-10T05:44:33;2.00;;;0.60;;
25349;SDS011;13302;48.796;11.978;2023-05-10T05:47:20;0.60;;;0.60;;
25349;SDS011;13302;48.796;11.978;2023-05-10T05:50:07;0.70;;;0.70;;
25349;SDS011;13302;48.796;11.978;2023-05-10T05:52:55;0.70;;;0.70;;
25349;SDS011;13302;48.796;11.978;2023-05-10T05:55:52;0.50;;;0.50;;
25349;SDS011;13302;48.796;11.978;2023-05-10T05:58:40;1.03;;;0.70;;
25349;SDS011;13302;48.796;11.978;2023-05-10T06:01:28;2.37;;;0.60;;
25349;SDS011;13302;48.796;11.978;2023-05-10T06:04:15;0.60;;;0.60;;
25349;SDS011;13302;48.796;11.978;2023-05-10T06:07:02;1.57;;;0.57;;
25349;SDS011;13302;48.796;11.978;2023-05-10T06:09:49;0.50;;;0.50;;
25349;SDS011;13302;48.796;11.978;2023-05-10T06:12:36;1.17;;;0.40;;
25349;SDS011;13302;48.796;11.978;2023-05-10T06:15:23;0.33;;;0.23;;
25349;SDS011;13302;48.796;11.978;2023-05-10T06:18:11;0.40;;;0.40;;
25349;SDS011;13302;48.796;11.978;2023-05-10T06:20:58;0.43;;;0.43;;
25349;SDS011;13302;48.796;11.978;2023-05-10T06:23:45;1.27;;;0.60;;
25349;SDS011;13302;48.796;11.978;2023-05-10T06:26:32;1.17;;;0.60;;
25349;SDS011;13302;48.796;11.978;2023-05-10T06:29:19;0.70;;;0.70;;
25349;SDS011;13302;48.796;11.978;2023-05-10T06:32:06;0.60;;;0.60;;
25349;SDS011;13302;48.796;11.978;2023-05-10T06:34:53;0.60;;;0.60;;
25349;SDS011;13302;48.796;11.978;2023-05-10T06:37:40;0.53;;;0.53;;
25349;SDS011;13302;48.796;11.978;2023-05-10T06:40:27;0.70;;;0.70;;
25349;SDS011;13302;48.796;11.978;2023-05-10T06:43:15;0.47;;;0.47;;
25349;SDS011;13302;48.796;11.978;2023-05-10T06:46:02;0.30;;;0.30;;
25349;SDS011;13302;48.796;11.978;2023-05-10T06:48:49;0.40;;;0.33;;
25349;SDS011;13302;48.796;11.978;2023-05-10T06:51:36;0.50;;;0.50;;
25349;SDS011;13302;48.796;11.978;2023-05-10T06:54:23;0.50;;;0.50;;
25349;SDS011;13302;48.796;11.978;2023-05-10T06:57:10;0.50;;;0.50;;
25349;SDS011;13302;48.796;11.978;2023-05-10T07:00:16;0.40;;;0.40;;
25349;SDS011;13302;48.796;11.978;2023-05-10T07:03:04;1.17;;;0.50;;
25349;SDS011;13302;48.796;11.978;2023-05-10T07:05:51;0.90;;;0.50;;
25349;SDS011;13302;48.796;11.978;2023-05-10T07:08:38;0.30;;;0.30;;
25349;SDS011;13302;48.796;11.978;2023-05-10T07:11:26;0.50;;;0.50;;
25349;SDS011;13302;48.796;11.978;2023-05-10T07:14:13;0.63;;;0.40;;
25349;SDS011;13302;48.796;11.978;2023-05-10T07:17:00;2.20;;;0.43;;
25349;SDS011;13302;48.796;11.978;2023-05-10T07:19:47;0.93;;;0.50;;
25349;SDS011;13302;48.796;11.978;2023-05-10T07:22:34;0.40;;;0.40;;
25349;SDS011;13302;48.796;11.978;2023-05-10T07:25:21;0.40;;;0.40;;
25349;SDS011;13302;48.796;11.978;2023-05-10T07:28:08;0.40;;;0.40;;
25349;SDS011;13302;48.796;11.978;2023-05-10T07:30:55;0.60;;;0.60;;
25349;SDS011;13302;48.796;11.978;2023-05-10T07:33:42;0.60;;;0.60;;
25349;SDS011;13302;48.796;11.978;2023-05-10T07:36:29;1.27;;;0.57;;
25349;SDS011;13302;48.796;11.978;2023-05-10T07:39:16;1.50;;;0.50;;
25349;SDS011;13302;48.796;11.978;2023-05-10T07:42:12;0.47;;;0.47;;
25349;SDS011;13302;48.796;11.978;2023-05-10T07:45:00;0.40;;;0.40;;
25349;SDS011;13302;48.796;11.978;2023-05-10T07:47:46;0.43;;;0.43;;
25349;SDS011;13302;48.796;11.978;2023-05-10T07:50:34;0.67;;;0.67;;
25349;SDS011;13302;48.796;11.978;2023-05-10T07:53:21;0.43;;;0.40;;
25349;SDS011;13302;48.796;11.978;2023-05-10T07:56:21;0.50;;;0.50;;
25349;SDS011;13302;48.796;11.978;2023-05-10T07:59:16;0.30;;;0.30;;
25349;SDS011;13302;48.796;11.978;2023-05-10T08:02:04;0.33;;;0.33;;
25349;SDS011;13302;48.796;11.978;2023-05-10T08:04:51;0.40;;;0.40;;
25349;SDS011;13302;48.796;11.978;2023-05-10T08:07:39;0.40;;;0.40;;
25349;SDS011;13302;48.796;11.978;2023-05-10T08:10:26;0.40;;;0.40;;
25349;SDS011;13302;48.796;11.978;2023-05-10T08:13:13;0.53;;;0.33;;
25349;SDS011;13302;48.796;11.978;2023-05-10T08:16:00;0.70;;;0.70;;
25349;SDS011;13302;48.796;11.978;2023-05-10T08:18:47;0.40;;;0.40;;
25349;SDS011;13302;48.796;11.978;2023-05-10T08:21:35;0.70;;;0.70;;
25349;SDS011;13302;48.796;11.978;2023-05-10T08:24:22;0.70;;;0.70;;
25349;SDS011;13302;48.796;11.978;2023-05-10T08:27:09;0.50;;;0.50;;
25349;SDS011;13302;48.796;11.978;2023-05-10T08:29:56;0.50;;;0.50;;
25349;SDS011;13302;48.796;11.978;2023-05-10T08:32:43;0.40;;;0.40;;
25349;SDS011;13302;48.796;11.978;2023-05-10T08:35:30;0.40;;;0.40;;
25349;SDS011;13302;48.796;11.978;2023-05-10T08:38:18;0.60;;;0.60;;
25349;SDS011;13302;48.796;11.978;2023-05-10T08:41:05;0.60;;;0.60;;
25349;SDS011;13302;48.796;11.978;2023-05-10T08:43:53;0.70;;;0.70;;
25349;SDS011;13302;48.796;11.978;2023-05-10T08:46:41;0.60;;;0.60;;
25349;SDS011;13302;48.796;11.978;2023-05-10T08:49:31;0.50;;;0.50;;
25349;SDS011;13302;48.796;11.978;2023-05-10T08:52:19;0.60;;;0.60;;
25349;SDS011;13302;48.796;11.978;2023-05-10T08:55:08;0.50;;;0.50;;
25349;SDS011;13302;48.796;11.978;2023-05-10T08:57:55;0.60;;;0.60;;
25349;SDS011;13302;48.796;11.978;2023-05-10T09:00:42;0.50;;;0.50;;
25349;SDS011;13302;48.796;11.978;2023-05-10T09:03:30;0.40;;;0.40;;
25349;SDS011;13302;48.796;11.978;2023-05-10T09:06:17;0.57;;;0.57;;
25349;SDS011;13302;48.796;11.978;2023-05-10T09:09:05;0.50;;;0.50;;
25349;SDS011;13302;48.796;11.978;2023-05-10T09:11:53;0.30;;;0.30;;
25349;SDS011;13302;48.796;11.978;2023-05-10T09:14:40;0.37;;;0.37;;
25349;SDS011;13302;48.796;11.978;2023-05-10T09:17:28;0.47;;;0.47;;
25349;SDS011;13302;48.796;11.978;2023-05-10T09:20:16;0.57;;;0.40;;
25349;SDS011;13302;48.796;11.978;2023-05-10T09:23:07;0.37;;;0.37;;
25349;SDS011;13302;48.796;11.978;2023-05-10T09:26:04;0.30;;;0.30;;
25349;SDS011;13302;48.796;11.978;2023-05-10T09:28:52;0.40;;;0.40;;
25349;SDS011;13302;48.796;11.978;2023-05-10T09:31:45;1.13;;;0.50;;
25349;SDS011;13302;48.796;11.978;2023-05-10T09:34:37;0.57;;;0.50;;
25349;SDS011;13302;48.796;11.978;2023-05-10T09:37:29;0.50;;;0.50;;
25349;SDS011;13302;48.796;11.978;2023-05-10T09:40:18;2.10;;;0.50;;
25349;SDS011;13302;48.796;11.978;2023-05-10T09:43:07;0.40;;;0.40;;
25349;SDS011;13302;48.796;11.978;2023-05-10T09:45:54;0.30;;;0.30;;
25349;SDS011;13302;48.796;11.978;2023-05-10T09:48:42;0.27;;;0.27;;
25349;SDS011;13302;48.796;11.978;2023-05-10T09:51:34;1.07;;;0.40;;
25349;SDS011;13302;48.796;11.978;2023-05-10T09:54:22;0.47;;;0.40;;
25349;SDS011;13302;48.796;11.978;2023-05-10T09:57:18;0.97;;;0.40;;
25349;SDS011;13302;48.796;11.978;2023-05-10T10:00:09;0.30;;;0.30;;
25349;SDS011;13302;48.796;11.978;2023-05-10T10:02:59;1.60;;;0.33;;
25349;SDS011;13302;48.796;11.978;2023-05-10T10:05:47;0.47;;;0.47;;
25349;SDS011;13302;48.796;11.978;2023-05-10T10:08:35;0.50;;;0.50;;
25349;SDS011;13302;48.796;11.978;2023-05-10T10:11:22;0.40;;;0.40;;
25349;SDS011;13302;48.796;11.978;2023-05-10T10:14:10;0.87;;;0.50;;
25349;SDS011;13302;48.796;11.978;2023-05-10T10:17:00;0.97;;;0.30;;
25349;SDS011;13302;48.796;11.978;2023-05-10T10:19:50;0.40;;;0.40;;
25349;SDS011;13302;48.796;11.978;2023-05-10T10:22:37;0.43;;;0.43;;
25349;SDS011;13302;48.796;11.978;2023-05-10T10:25:25;0.40;;;0.40;;
25349;SDS011;13302;48.796;11.978;2023-05-10T10:28:26;0.50;;;0.50;;
25349;SDS011;13302;48.796;11.978;2023-05-10T10:34:45;0.50;;;0.50;;
25349;SDS011;13302;48.796;11.978;2023-05-10T10:37:45;0.40;;;0.40;;
25349;SDS011;13302;48.796;11.978;2023-05-10T10:40:33;1.90;;;0.50;;
25349;SDS011;13302;48.796;11.978;2023-05-10T10:43:24;0.57;;;0.50;;
25349;SDS011;13302;48.796;11.978;2023-05-10T10:46:14;0.57;;;0.57;;
25349;SDS011;13302;48.796;11.978;2023-05-10T10:49:09;0.50;;;0.50;;
25349;SDS011;13302;48.796;11.978;2023-05-10T10:52:13;0.60;;;0.60;;
25349;SDS011;13302;48.796;11.978;2023-05-10T10:58:05;0.47;;;0.47;;
25349;SDS011;13302;48.796;11.978;2023-05-10T11:01:08;0.40;;;0.40;;
25349;SDS011;13302;48.796;11.978;2023-05-10T11:06:50;0.40;;;0.40;;
25349;SDS011;13302;48.796;11.978;2023-05-10T11:09:39;0.30;;;0.30;;
25349;SDS011;13302;48.796;11.978;2023-05-10T11:12:27;0.63;;;0.63;;
25349;SDS011;13302;48.796;11.978;2023-05-10T11:15:14;0.83;;;0.40;;
25349;SDS011;13302;48.796;11.978;2023-05-10T11:21:07;0.50;;;0.50;;
25349;SDS011;13302;48.796;11.978;2023-05-10T11:23:57;0.43;;;0.43;;
25349;SDS011;13302;48.796;11.978;2023-05-10T11:26:45;0.50;;;0.50;;
25349;SDS011;13302;48.796;11.978;2023-05-10T11:29:32;0.47;;;0.47;;
25349;SDS011;13302;48.796;11.978;2023-05-10T11:32:19;0.60;;;0.60;;
25349;SDS011;13302;48.796;11.978;2023-05-10T11:35:10;0.47;;;0.47;;
25349;SDS011;13302;48.796;11.978;2023-05-10T11:37:58;0.60;;;0.60;;
25349;SDS011;13302;48.796;11.978;2023-05-10T11:40:45;0.60;;;0.60;;
25349;SDS011;13302;48.796;11.978;2023-05-10T11:43:33;0.60;;;0.60;;
25349;SDS011;13302;48.796;11.978;2023-05-10T11:46:20;0.40;;;0.40;;
25349;SDS011;13302;48.796;11.978;2023-05-10T11:49:09;0.60;;;0.60;;
25349;SDS011;13302;48.796;11.978;2023-05-10T11:52:06;0.50;;;0.50;;
25349;SDS011;13302;48.796;11.978;2023-05-10T11:54:54;0.30;;;0.30;;
25349;SDS011;13302;48.796;11.978;2023-05-10T11:57:42;0.60;;;0.60;;
25349;SDS011;13302;48.796;11.978;2023-05-10T12:00:31;0.57;;;0.57;;
25349;SDS011;13302;48.796;11.978;2023-05-10T12:03:19;0.60;;;0.60;;
25349;SDS011;13302;48.796;11.978;2023-05-10T12:06:06;0.80;;;0.60;;
25349;SDS011;13302;48.796;11.978;2023-05-10T12:08:54;0.60;;;0.60;;
25349;SDS011;13302;48.796;11.978;2023-05-10T12:11:41;0.60;;;0.60;;
25349;SDS011;13302;48.796;11.978;2023-05-10T12:14:33;0.60;;;0.60;;
25349;SDS011;13302;48.796;11.978;2023-05-10T12:17:26;0.50;;;0.50;;
25349;SDS011;13302;48.796;11.978;2023-05-10T12:20:18;0.43;;;0.43;;
25349;SDS011;13302;48.796;11.978;2023-05-10T12:23:09;0.60;;;0.60;;
25349;SDS011;13302;48.796;11.978;2023-05-10T12:26:03;0.60;;;0.60;;
25349;SDS011;13302;48.796;11.978;2023-05-10T12:28:50;1.40;;;0.67;;
25349;SDS011;13302;48.796;11.978;2023-05-10T12:34:46;0.80;;;0.70;;
25349;SDS011;13302;48.796;11.978;2023-05-10T12:37:33;1.00;;;1.00;;
25349;SDS011;13302;48.796;11.978;2023-05-10T12:40:25;0.70;;;0.70;;
25349;SDS011;13302;48.796;11.978;2023-05-10T12:43:12;0.57;;;0.50;;
25349;SDS011;13302;48.796;11.978;2023-05-10T12:46:09;0.50;;;0.50;;
25349;SDS011;13302;48.796;11.978;2023-05-10T12:48:58;0.40;;;0.40;;
25349;SDS011;13302;48.796;11.978;2023-05-10T12:51:54;0.50;;;0.50;;
25349;SDS011;13302;48.796;11.978;2023-05-10T12:54:41;1.70;;;0.60;;
25349;SDS011;13302;48.796;11.978;2023-05-10T12:57:29;0.60;;;0.60;;
25349;SDS011;13302;48.796;11.978;2023-05-10T13:00:16;0.90;;;0.87;;
25349;SDS011;13302;48.796;11.978;2023-05-10T13:03:04;0.70;;;0.70;;
25349;SDS011;13302;48.796;11.978;2023-05-10T13:05:54;0.50;;;0.50;;
25349;SDS011;13302;48.796;11.978;2023-05-10T13:08:41;0.60;;;0.50;;
25349;SDS011;13302;48.796;11.978;2023-05-10T13:11:28;0.60;;;0.47;;
25349;SDS011;13302;48.796;11.978;2023-05-10T13:14:15;0.50;;;0.50;;
25349;SDS011;13302;48.796;11.978;2023-05-10T13:17:02;0.77;;;0.77;;
25349;SDS011;13302;48.796;11.978;2023-05-10T13:19:49;0.70;;;0.70;;
25349;SDS011;13302;48.796;11.978;2023-05-10T13:22:36;0.60;;;0.60;;
25349;SDS011;13302;48.796;11.978;2023-05-10T13:25:26;0.60;;;0.60;;
25349;SDS011;13302;48.796;11.978;2023-05-10T13:28:13;0.60;;;0.60;;
25349;SDS011;13302;48.796;11.978;2023-05-10T13:31:00;1.40;;;0.60;;
25349;SDS011;13302;48.796;11.978;2023-05-10T13:33:47;0.70;;;0.70;;
25349;SDS011;13302;48.796;11.978;2023-05-10T13:36:34;0.70;;;0.70;;
25349;SDS011;13302;48.796;11.978;2023-05-10T13:39:21;1.03;;;0.60;;
25349;SDS011;13302;48.796;11.978;2023-05-10T13:42:08;0.80;;;0.80;;
25349;SDS011;13302;48.796;11.978;2023-05-10T13:44:55;1.50;;;0.70;;
25349;SDS011;13302;48.796;11.978;2023-05-10T13:47:42;0.93;;;0.93;;
25349;SDS011;13302;48.796;11.978;2023-05-10T13:50:30;0.70;;;0.70;;
25349;SDS011;13302;48.796;11.978;2023-05-10T13:53:17;1.47;;;0.70;;
25349;SDS011;13302;48.796;11.978;2023-05-10T13:56:04;1.30;;;0.70;;
25349;SDS011;13302;48.796;11.978;2023-05-10T13:58:51;0.70;;;0.70;;
25349;SDS011;13302;48.796;11.978;2023-05-10T14:01:38;0.77;;;0.77;;
25349;SDS011;13302;48.796;11.978;2023-05-10T14:04:25;0.97;;;0.80;;
25349;SDS011;13302;48.796;11.978;2023-05-10T14:07:12;0.87;;;0.80;;
25349;SDS011;13302;48.796;11.978;2023-05-10T14:09:59;0.73;;;0.73;;
25349;SDS011;13302;48.796;11.978;2023-05-10T14:12:46;1.00;;;0.90;;
25349;SDS011;13302;48.796;11.978;2023-05-10T14:15:33;0.93;;;0.93;;
25349;SDS011;13302;48.796;11.978;2023-05-10T14:18:20;0.90;;;0.90;;
25349;SDS011;13302;48.796;11.978;2023-05-10T14:21:07;0.73;;;0.73;;
25349;SDS011;13302;48.796;11.978;2023-05-10T14:23:55;0.93;;;0.93;;
25349;SDS011;13302;48.796;11.978;2023-05-10T14:26:42;1.00;;;1.00;;
25349;SDS011;13302;48.796;11.978;2023-05-10T14:29:29;0.70;;;0.70;;
25349;SDS011;13302;48.796;11.978;2023-05-10T14:32:16;0.70;;;0.70;;
25349;SDS011;13302;48.796;11.978;2023-05-10T14:35:04;2.30;;;0.73;;
25349;SDS011;13302;48.796;11.978;2023-05-10T14:37:52;0.87;;;0.87;;
25349;SDS011;13302;48.796;11.978;2023-05-10T14:40:39;0.73;;;0.73;;
25349;SDS011;13302;48.796;11.978;2023-05-10T14:43:27;0.77;;;0.77;;
25349;SDS011;13302;48.796;11.978;2023-05-10T14:46:14;1.40;;;1.30;;
25349;SDS011;13302;48.796;11.978;2023-05-10T14:49:02;1.20;;;1.20;;
25349;SDS011;13302;48.796;11.978;2023-05-10T14:51:49;0.90;;;0.90;;
25349;SDS011;13302;48.796;11.978;2023-05-10T14:54:36;1.10;;;1.00;;
25349;SDS011;13302;48.796;11.978;2023-05-10T14:57:23;1.10;;;1.00;;
25349;SDS011;13302;48.796;11.978;2023-05-10T15:00:10;1.23;;;0.90;;
25349;SDS011;13302;48.796;11.978;2023-05-10T15:02:58;1.53;;;1.20;;
25349;SDS011;13302;48.796;11.978;2023-05-10T15:05:46;1.17;;;1.17;;
25349;SDS011;13302;48.796;11.978;2023-05-10T15:08:33;0.80;;;0.80;;
25349;SDS011;13302;48.796;11.978;2023-05-10T15:11:20;1.43;;;0.80;;
25349;SDS011;13302;48.796;11.978;2023-05-10T15:14:07;0.70;;;0.70;;
25349;SDS011;13302;48.796;11.978;2023-05-10T15:16:54;1.70;;;0.70;;
25349;SDS011;13302;48.796;11.978;2023-05-10T15:19:41;0.70;;;0.70;;
25349;SDS011;13302;48.796;11.978;2023-05-10T15:22:29;0.70;;;0.70;;
25349;SDS011;13302;48.796;11.978;2023-05-10T15:25:20;0.80;;;0.80;;
25349;SDS011;13302;48.796;11.978;2023-05-10T15:28:07;1.07;;;0.70;;
25349;SDS011;13302;48.796;11.978;2023-05-10T15:30:54;0.60;;;0.60;;
25349;SDS011;13302;48.796;11.978;2023-05-10T15:33:42;0.70;;;0.70;;
25349;SDS011;13302;48.796;11.978;2023-05-10T15:36:29;0.93;;;0.60;;
25349;SDS011;13302;48.796;11.978;2023-05-10T15:39:16;0.77;;;0.77;;
25349;SDS011;13302;48.796;11.978;2023-05-10T15:42:03;0.70;;;0.70;;
25349;SDS011;13302;48.796;11.978;2023-05-10T15:44:50;0.67;;;0.67;;
25349;SDS011;13302;48.796;11.978;2023-05-10T15:47:37;0.70;;;0.70;;
25349;SDS011;13302;48.796;11.978;2023-05-10T15:50:26;0.80;;;0.80;;
25349;SDS011;13302;48.796;11.978;2023-05-10T15:53:13;0.60;;;0.60;;
25349;SDS011;13302;48.796;11.978;2023-05-10T15:56:00;0.80;;;0.80;;
25349;SDS011;13302;48.796;11.978;2023-05-10T15:58:47;1.63;;;0.70;;
25349;SDS011;13302;48.796;11.978;2023-05-10T16:01:34;0.60;;;0.60;;
25349;SDS011;13302;48.796;11.978;2023-05-10T16:04:22;0.70;;;0.70;;
25349;SDS011;13302;48.796;11.978;2023-05-10T16:07:09;1.03;;;0.93;;
25349;SDS011;13302;48.796;11.978;2023-05-10T16:09:56;0.60;;;0.60;;
25349;SDS011;13302;48.796;11.978;2023-05-10T16:12:43;0.83;;;0.70;;
25349;SDS011;13302;48.796;11.978;2023-05-10T16:15:30;0.90;;;0.90;;
25349;SDS011;13302;48.796;11.978;2023-05-10T16:18:17;0.80;;;0.80;;
25349;SDS011;13302;48.796;11.978;2023-05-10T16:21:04;0.80;;;0.80;;
25349;SDS011;13302;48.796;11.978;2023-05-10T16:23:51;1.00;;;1.00;;
25349;SDS011;13302;48.796;11.978;2023-05-10T16:26:38;3.73;;;0.93;;
25349;SDS011;13302;48.796;11.978;2023-05-10T16:29:26;1.03;;;1.00;;
25349;SDS011;13302;48.796;11.978;2023-05-10T16:32:13;0.90;;;0.90;;
25349;SDS011;13302;48.796;11.978;2023-05-10T16:35:00;0.83;;;0.83;;
25349;SDS011;13302;48.796;11.978;2023-05-10T16:37:48;1.00;;;0.90;;
25349;SDS011;13302;48.796;11.978;2023-05-10T16:40:35;0.93;;;0.80;;
25349;SDS011;13302;48.796;11.978;2023-05-10T16:43:22;0.90;;;0.90;;
25349;SDS011;13302;48.796;11.978;2023-05-10T16:46:11;0.93;;;0.93;;
25349;SDS011;13302;48.796;11.978;2023-05-10T16:48:58;0.93;;;0.93;;
25349;SDS011;13302;48.796;11.978;2023-05-10T16:51:45;0.70;;;0.70;;
25349;SDS011;13302;48.796;11.978;2023-05-10T16:54:32;1.10;;;1.10;;
25349;SDS011;13302;48.796;11.978;2023-05-10T16:57:19;1.03;;;0.90;;
25349;SDS011;13302;48.796;11.978;2023-05-10T17:00:07;1.67;;;1.07;;
25349;SDS011;13302;48.796;11.978;2023-05-10T17:02:55;1.50;;;0.90;;
25349;SDS011;13302;48.796;11.978;2023-05-10T17:05:42;1.47;;;0.90;;
25349;SDS011;13302;48.796;11.978;2023-05-10T17:08:29;1.07;;;0.77;;